x

Corpus Christi, Tx - 60nm Sse Of Corpus Christi, Tx (42020) Wave Buoy

7:50pm - Sun 26th Feb 2017 All times are CST. -6 hours from GMT.

  • Sig Wave height 4.6ft
  • Swell Direction
  • Peak Period 6s
  • Average Period 5s
  • Wind
    20mph, 25mph gusts
  • Air Temp 74°f
  • Sea Pressure 1011.1mb
  • Corpus Christi, Tx - 60nm Sse Of Corpus Christi, Tx
  • Corpus Christi, Tx - 60nm Sse Of Corpus Christi, Tx

More Historic Weather Station data

Upgrade to MSW Pro to gain access to the past 30 days of data for over 8000 Wavebouys and Weather Stations around the globe.

Join Pro

Comparision Forecast

View Surf forecast
   
Sun 02/26 7:50pm 4.5ft 6s 5s 20 25 mph 1011.1mb 74f
6:50pm 5ft 6s 5s 20 25 mph 1010.9mb 74f
5:50pm 5.5ft 6s 5s 18 22 mph 1010.9mb 74f
4:50pm 6ft 7s 5s 18 22 mph 1010.8mb 75f
3:50pm 6ft 6s 5s 20 25 mph 1010.9mb 75f
2:50pm 5.5ft 6s 5s 22 25 mph 1011.1mb 75f
1:50pm 6ft 6s 5s 20 25 mph 1012.2mb 74f
12:50pm 6ft 6s 5s 22 27 mph 1013mb 75f
11:50am 6ft 6s 5s 25 31 mph 1014mb 75f
10:50am 6ft 6s 5s 25 31 mph 1014.1mb 74f
9:50am 5.5ft 6s 5s 25 27 mph 1014.1mb 74f
8:50am 5ft 6s 5s 25 29 mph 1013.9mb 73f
7:50am 5ft 7s 5s 22 27 mph 1013.6mb 73f
6:50am 4.5ft 7s 5s 22 27 mph 1013.4mb 73f
5:50am 4.5ft 7s 5s 20 25 mph 1013.5mb 72f
4:50am 4.5ft 7s 5s 20 25 mph 1013.3mb 72f
3:50am 4.5ft 7s 5s 20 25 mph 1013.4mb 72f
2:50am 5ft 7s 5s 20 25 mph 1013.7mb 71f
1:50am 4.5ft 7s 5s 20 22 mph 1014.5mb 71f
12:50am 5ft 6s 5s 16 20 mph 1015.2mb 70f
Sat 02/25 11:50pm 5.5ft 7s 5s 18 22 mph 1015.8mb 70f
10:50pm 5.5ft 8s 5s 20 22 mph 1016.2mb 69f
9:50pm 5.5ft 8s 5s 20 25 mph 1016.1mb 69f
8:50pm 6ft 8s 5s 20 25 mph 1016.4mb 69f
7:50pm 6ft 8s 6s 18 22 mph 1016.4mb 68f
6:50pm 6ft 7s 6s 18 25 mph 1016.2mb 68f
5:50pm 6ft 8s 6s 18 22 mph 1016.4mb 67f
4:50pm 6.5ft 8s 6s 18 22 mph 1016.5mb 67f
3:50pm 7ft 8s 6s 18 22 mph 1016.3mb 67f
2:50pm 7ft 8s 6s 18 22 mph 1016.6mb 67f
1:50pm 7.5ft 8s 6s 20 27 mph 1017.1mb 67f
12:50pm 7ft 8s 6s 20 27 mph 1017.8mb 67f
11:50am 6.5ft 7s 6s 20 27 mph 1018.6mb 68f
10:50am 7ft 8s 6s 20 27 mph 1018.8mb 67f
9:50am 7ft 7s 5s 20 27 mph 1018.4mb 67f
8:50am 7ft 7s 5s 25 31 mph 1016.9mb 68f
7:50am 7ft 7s 5s 25 29 mph 1016.1mb 68f
6:50am 7.5ft 7s 5s 27 31 mph 1014.7mb 68f
5:50am 7ft 7s 5s 22 27 mph 1014.6mb 68f
4:50am 7.5ft 7s 6s 22 27 mph 1013.8mb 68f
3:50am 7ft 6s 5s 20 25 mph 1013.4mb 68f
2:50am 6ft 6s 5s 25 29 mph 1012.9mb 69f
1:50am 6.5ft 5s 5s 27 31 mph 1012.2mb 71f
12:50am 6ft 7s 5s 27 34 mph 1011.2mb 73f
Fri 02/24 11:50pm 5ft 7s 5s 29 34 mph 1010.7mb 74f
10:50pm 4.5ft 7s 5s 27 31 mph 1010.7mb 75f
9:50pm 4.5ft 7s 6s 18 20 mph 1010.8mb 75f
8:50pm 5ft 7s 6s 16 18 mph 1010mb 74f
7:50pm 4.5ft 7s 6s 11 13 mph 1008.7mb 74f
6:50pm 5ft 7s 6s 11 13 mph 1007.8mb 74f
5:50pm 4.5ft 7s 6s 11 13 mph 1007.3mb 74f
4:50pm 5ft 7s 6s 13
mph
1006.8mb 74f
3:50pm 5ft 7s 6s 13 16 mph 1006.1mb 73f
2:50pm 5.5ft 7s 6s 11 13 mph 1006.3mb 73f
1:50pm 6ft 7s 6s 11 13 mph 1006.7mb 73f
12:50pm 5.5ft 7s 6s 9 11 mph 1007.1mb 73f
11:50am 5.5ft 7s 6s 9 13 mph 1007.4mb 72f
10:50am 5ft 7s 5s 13 16 mph 1007.1mb 73f
9:50am 6ft 7s 5s 16 18 mph 1005.9mb 73f
8:50am 6ft 7s 5s 20 25 mph 1005.2mb 74f
7:50am 6ft 7s 5s 22 27 mph 1003.7mb 74f
6:50am 6ft 6s 5s 25 29 mph 1003mb 74f
5:50am 6.5ft 7s 5s 25 29 mph 1002.7mb 74f
4:50am 5.5ft 6s 5s 25 29 mph 1002.5mb 74f
3:50am 6ft 6s 5s 22 29 mph 1003.1mb 74f
2:50am 5ft 6s 5s 25 27 mph 1003.1mb 74f
1:50am 5ft 6s 5s 25 29 mph 1003.6mb 74f
12:50am 5ft 6s 5s 22 25 mph 1004.2mb 74f
Thu 02/23 11:50pm 4.5ft 6s 5s 20 25 mph 1004.7mb 74f
10:50pm 4.5ft 6s 5s 20 22 mph 1004.2mb 74f
9:50pm 4.5ft 6s 5s 22 29 mph 1003.5mb 74f
8:50pm 4ft 6s 4s 22 27 mph 1003.2mb 74f
7:50pm 4.5ft 5s 5s 20 25 mph 1002.8mb 74f
6:50pm 4ft 5s 4s 18 22 mph 1002.8mb 75f
5:50pm 4ft 5s 4s 18 22 mph 1002.4mb 75f
4:50pm 4ft 5s 4s 22 25 mph 1001.8mb 75f
3:50pm 3.5ft 5s 4s 20 25 mph 1002.1mb 75f
2:50pm 3.5ft 4s 4s 22 25 mph 1002.8mb 75f
1:50pm 3.5ft 5s 4s 20 25 mph 1003.9mb 75f
12:50pm 3ft 4s 4s 20 25 mph 1005mb 75f
11:50am 2.5ft 4s 4s 18 20 mph 1006.2mb 75f
10:50am 2.5ft 4s 4s 18 20 mph 1006.8mb 75f
9:50am 2.5ft 4s 4s 18 20 mph 1007mb 75f
8:50am 2.5ft 4s 4s 18 20 mph 1006.9mb 74f
7:50am 2.5ft 4s 4s 18 22 mph 1006.7mb 74f
6:50am 2.5ft 4s 4s 18 20 mph 1006.5mb 74f
5:50am 2.5ft 4s 3s 18 20 mph 1006.4mb 74f
4:50am 2.5ft 4s 3s 18 20 mph 1006.4mb 74f
3:50am 2ft 4s 3s 16 20 mph 1006.6mb 74f